Time;durP1;ratioP1;P1;durP2;ratioP2;P2;SDS_P1;SDS_P2;PMS_P1;PMS_P2;Temp;Humidity;BMP_temperature;BMP_pressure;BME280_temperature;BME280_humidity;BME280_pressure;Samples;Min_cycle;Max_cycle;Signal;HPM_P1;HPM_P2
2023/01/02 00:01:33;;;;;;;14.70;7.93;;;;;;;;;;4954648;28;20191;-87
2023/01/02 00:03:59;;;;;;;12.87;7.87;;;;;;;;;;4957751;28;20210;-88
2023/01/02 00:06:28;;;;;;;14.20;7.67;;;;;;;;;;4985538;28;20230;-87
2023/01/02 00:08:55;;;;;;;12.67;7.77;;;;;;;;;;4970998;28;20215;-88
2023/01/02 00:11:23;;;;;;;13.70;8.53;;;;;;;;;;4973468;28;20191;-87
2023/01/02 00:13:52;;;;;;;15.93;9.00;;;;;;;;;;4956204;28;20214;-88
2023/01/02 00:16:18;;;;;;;12.27;7.90;;;;;;;;;;4958023;28;20186;-87
2023/01/02 00:18:44;;;;;;;11.57;7.27;;;;;;;;;;4958323;28;20190;-87
2023/01/02 00:21:10;;;;;;;13.10;6.90;;;;;;;;;;4961415;28;20194;-88
2023/01/02 00:23:36;;;;;;;16.47;7.83;;;;;;;;;;4972328;28;20179;-87
2023/01/02 00:26:02;;;;;;;12.43;7.10;;;;;;;;;;4989119;28;20203;-87
2023/01/02 00:28:29;;;;;;;12.40;6.90;;;;;;;;;;4958405;28;20290;-86
2023/01/02 00:31:02;;;;;;;12.97;6.80;;;;;;;;;;4958751;28;20210;-86
2023/01/02 00:33:28;;;;;;;13.70;6.07;;;;;;;;;;4960755;28;20189;-88
2023/01/02 00:35:57;;;;;;;9.10;5.97;;;;;;;;;;4966346;28;20307;-87
2023/01/02 00:38:33;;;;;;;;;;;;;;;;;;;;;
2023/01/02 00:40:59;;;;;;;14.90;6.40;;;;;;;;;;4970775;28;20190;-88
2023/01/02 00:43:28;;;;;;;12.30;5.97;;;;;;;;;;4975169;28;20175;-87
2023/01/02 00:45:57;;;;;;;12.27;6.33;;;;;;;;;;4982530;28;20270;-87
2023/01/02 00:48:26;;;;;;;13.53;6.37;;;;;;;;;;4985515;28;20188;-88
2023/01/02 00:50:55;;;;;;;11.97;6.37;;;;;;;;;;4982031;28;20191;-87
2023/01/02 00:53:21;;;;;;;14.57;6.50;;;;;;;;;;4973546;28;20187;-88
2023/01/02 00:55:47;;;;;;;9.37;6.23;;;;;;;;;;4988417;28;20183;-87
2023/01/02 00:58:22;;;;;;;12.00;6.57;;;;;;;;;;4975127;28;20195;-87
2023/01/02 01:00:52;;;;;;;12.37;6.43;;;;;;;;;;4969443;28;20182;-88
2023/01/02 01:03:18;;;;;;;12.27;6.37;;;;;;;;;;4986961;28;20206;-88
2023/01/02 01:05:44;;;;;;;12.00;6.43;;;;;;;;;;4958757;28;20249;-87
2023/01/02 01:08:10;;;;;;;15.93;6.13;;;;;;;;;;4980935;28;20278;-87
2023/01/02 01:10:39;;;;;;;12.47;6.43;;;;;;;;;;4961758;28;20230;-88
2023/01/02 01:13:05;;;;;;;13.83;6.23;;;;;;;;;;4978220;28;20183;-88
2023/01/02 01:15:43;;;;;;;9.47;5.90;;;;;;;;;;4972937;28;20210;-88
2023/01/02 01:18:12;;;;;;;10.90;6.23;;;;;;;;;;4960555;28;20257;-87
2023/01/02 01:20:38;;;;;;;10.03;6.00;;;;;;;;;;4960947;28;20218;-88
2023/01/02 01:23:04;;;;;;;10.80;6.07;;;;;;;;;;4990217;28;20187;-87
2023/01/02 01:25:30;;;;;;;10.90;5.93;;;;;;;;;;4973904;28;20261;-87
2023/01/02 01:27:59;;;;;;;13.20;6.03;;;;;;;;;;4976415;28;20223;-87
2023/01/02 01:30:35;;;;;;;11.60;5.70;;;;;;;;;;4974162;28;20210;-87
2023/01/02 01:33:01;;;;;;;10.40;6.13;;;;;;;;;;4973725;28;20195;-87
2023/01/02 01:35:27;;;;;;;11.70;5.17;;;;;;;;;;4957371;28;20210;-87
2023/01/02 01:37:56;;;;;;;10.53;5.97;;;;;;;;;;4957271;28;20175;-87
2023/01/02 01:40:24;;;;;;;10.20;5.90;;;;;;;;;;4957368;28;20184;-88
2023/01/02 01:43:01;;;;;;;9.93;5.53;;;;;;;;;;4973011;28;20312;-87
2023/01/02 01:45:34;;;;;;;10.07;5.60;;;;;;;;;;4973275;28;20183;-88
2023/01/02 01:48:00;;;;;;;14.07;5.60;;;;;;;;;;4973360;28;20215;-88
2023/01/02 01:50:34;;;;;;;10.00;5.67;;;;;;;;;;4973210;28;20215;-88
2023/01/02 01:53:20;;;;;;;14.07;5.47;;;;;;;;;;4973028;28;20220;-89
2023/01/02 01:56:09;;;;;;;10.03;5.37;;;;;;;;;;4973282;28;20175;-89
2023/01/02 01:58:46;;;;;;;13.37;6.20;;;;;;;;;;4973223;28;20187;-89
2023/01/02 02:01:18;;;;;;;10.20;5.60;;;;;;;;;;4973350;28;20186;-89
2023/01/02 02:03:46;;;;;;;11.63;5.57;;;;;;;;;;4971705;28;20207;-89
2023/01/02 02:06:16;;;;;;;15.03;5.80;;;;;;;;;;4979635;28;20231;-89
2023/01/02 02:09:00;;;;;;;10.40;5.70;;;;;;;;;;4959977;28;20218;-89
2023/01/02 02:11:27;;;;;;;11.70;5.87;;;;;;;;;;4956657;28;20175;-87
2023/01/02 02:14:01;;;;;;;11.83;5.63;;;;;;;;;;4940985;28;20184;-88
2023/01/02 02:16:33;;;;;;;14.70;6.07;;;;;;;;;;4940888;28;20206;-87
2023/01/02 02:19:12;;;;;;;10.17;6.27;;;;;;;;;;4972857;28;20208;-87
2023/01/02 02:21:41;;;;;;;11.53;5.87;;;;;;;;;;4942465;28;20218;-88
2023/01/02 02:24:09;;;;;;;12.53;5.90;;;;;;;;;;4944981;28;20187;-87
2023/01/02 02:26:57;;;;;;;13.73;6.00;;;;;;;;;;4948039;28;20207;-87
2023/01/02 02:29:23;;;;;;;11.70;5.83;;;;;;;;;;4940511;29;20222;-89
2023/01/02 02:31:56;;;;;;;13.43;6.23;;;;;;;;;;4939873;28;20180;-87
2023/01/02 02:34:27;;;;;;;11.70;5.57;;;;;;;;;;4969972;28;20269;-87
2023/01/02 02:36:59;;;;;;;9.77;5.60;;;;;;;;;;4974966;28;20189;-87
2023/01/02 02:39:35;;;;;;;12.77;6.00;;;;;;;;;;4959532;28;20186;-88
2023/01/02 02:42:07;;;;;;;11.63;5.80;;;;;;;;;;4959193;28;20245;-89
2023/01/02 02:44:33;;;;;;;11.97;5.70;;;;;;;;;;4946585;28;20191;-88
2023/01/02 02:47:03;;;;;;;13.27;5.57;;;;;;;;;;4972064;28;20350;-87
2023/01/02 02:49:50;;;;;;;11.67;5.47;;;;;;;;;;4972025;28;20215;-87
2023/01/02 02:52:31;;;;;;;13.50;5.90;;;;;;;;;;4966637;28;20179;-88
2023/01/02 02:55:06;;;;;;;12.37;5.57;;;;;;;;;;4939946;28;20183;-87
2023/01/02 02:57:33;;;;;;;10.90;5.87;;;;;;;;;;4971752;28;20194;-89
2023/01/02 03:00:12;;;;;;;11.13;5.50;;;;;;;;;;4971533;28;20191;-88
2023/01/02 03:02:38;;;;;;;11.73;5.43;;;;;;;;;;4969636;28;20187;-90
2023/01/02 03:05:14;;;;;;;12.40;5.27;;;;;;;;;;4950880;28;20238;-88
2023/01/02 03:07:43;;;;;;;11.80;5.70;;;;;;;;;;4939284;28;20194;-88
2023/01/02 03:10:11;;;;;;;15.70;5.73;;;;;;;;;;4946383;28;20214;-88
2023/01/02 03:12:57;;;;;;;12.53;5.20;;;;;;;;;;4947437;28;20178;-89
2023/01/02 03:15:28;;;;;;;10.47;5.07;;;;;;;;;;4939624;29;20277;-88
2023/01/02 03:18:03;;;;;;;10.47;5.87;;;;;;;;;;4962510;28;20191;-89
2023/01/02 03:20:33;;;;;;;13.87;5.43;;;;;;;;;;4948900;28;20189;-87
2023/01/02 03:23:00;;;;;;;12.43;5.57;;;;;;;;;;4970206;28;20207;-89
2023/01/02 03:25:27;;;;;;;10.93;5.70;;;;;;;;;;4939542;28;20195;-87
2023/01/02 03:27:59;;;;;;;14.77;5.80;;;;;;;;;;4943390;28;20214;-88
2023/01/02 03:30:25;;;;;;;11.50;5.97;;;;;;;;;;4939192;28;20302;-88
2023/01/02 03:32:57;;;;;;;14.33;5.70;;;;;;;;;;4954721;28;20191;-87
2023/01/02 03:35:43;;;;;;;10.50;5.17;;;;;;;;;;4971792;28;20275;-88
2023/01/02 03:38:18;;;;;;;10.53;5.10;;;;;;;;;;4971462;28;20234;-87
2023/01/02 03:40:50;;;;;;;12.83;5.70;;;;;;;;;;4962816;28;20214;-88
2023/01/02 03:43:27;;;;;;;13.43;5.70;;;;;;;;;;4939312;29;20191;-87
2023/01/02 03:46:15;;;;;;;8.90;5.13;;;;;;;;;;4939061;29;20217;-88
2023/01/02 03:48:45;;;;;;;11.03;5.30;;;;;;;;;;4938282;29;20207;-88
2023/01/02 03:51:11;;;;;;;11.20;4.87;;;;;;;;;;4957292;28;20187;-87
2023/01/02 03:53:41;;;;;;;11.70;5.00;;;;;;;;;;4958269;28;20183;-89
2023/01/02 03:56:07;;;;;;;11.07;4.93;;;;;;;;;;4943446;28;20187;-90
2023/01/02 03:58:50;;;;;;;9.53;5.40;;;;;;;;;;4953177;28;20196;-88
2023/01/02 04:01:21;;;;;;;9.23;4.77;;;;;;;;;;4957201;28;20182;-88
2023/01/02 04:03:59;;;;;;;10.27;4.77;;;;;;;;;;4954979;28;20203;-89
2023/01/02 04:06:30;;;;;;;11.77;5.30;;;;;;;;;;4955647;28;20230;-88
2023/01/02 04:09:00;;;;;;;8.23;5.20;;;;;;;;;;4958081;28;20206;-87
2023/01/02 04:11:32;;;;;;;9.37;4.93;;;;;;;;;;4958103;28;20269;-88
2023/01/02 04:14:03;;;;;;;10.70;5.07;;;;;;;;;;4939022;28;20274;-88
2023/01/02 04:16:33;;;;;;;8.27;4.97;;;;;;;;;;4938871;28;20184;-88
2023/01/02 04:19:07;;;;;;;9.40;5.00;;;;;;;;;;4938972;28;20183;-89
2023/01/02 04:21:36;;;;;;;10.13;5.17;;;;;;;;;;4955985;28;20194;-89
2023/01/02 04:24:07;;;;;;;10.83;4.87;;;;;;;;;;4939102;28;20191;-87
2023/01/02 04:26:36;;;;;;;10.83;5.50;;;;;;;;;;4951912;28;20200;-89
2023/01/02 04:29:04;;;;;;;11.60;5.20;;;;;;;;;;4957905;28;20270;-89
2023/01/02 04:31:43;;;;;;;8.03;4.80;;;;;;;;;;4955189;28;20186;-88
2023/01/02 04:34:14;;;;;;;9.77;4.93;;;;;;;;;;4970783;28;20183;-89
2023/01/02 04:36:41;;;;;;;8.87;4.93;;;;;;;;;;4971133;28;20179;-88
2023/01/02 04:39:07;;;;;;;8.00;4.83;;;;;;;;;;4970724;28;20183;-89
2023/01/02 04:41:37;;;;;;;12.73;5.07;;;;;;;;;;4971100;28;20198;-88
2023/01/02 04:44:03;;;;;;;10.67;5.30;;;;;;;;;;4956841;28;20436;-88
2023/01/02 04:46:29;;;;;;;9.57;5.10;;;;;;;;;;4938692;28;20194;-90
2023/01/02 04:49:25;;;;;;;12.17;5.30;;;;;;;;;;4958733;28;20213;-88
2023/01/02 04:51:52;;;;;;;10.93;5.50;;;;;;;;;;4945486;28;20188;-89
2023/01/02 04:54:18;;;;;;;11.37;5.07;;;;;;;;;;4938542;28;20211;-89
2023/01/02 04:56:46;;;;;;;9.93;4.90;;;;;;;;;;4964883;28;20230;-88
2023/01/02 04:59:17;;;;;;;12.30;5.20;;;;;;;;;;4948680;28;20193;-88
2023/01/02 05:01:45;;;;;;;11.57;5.47;;;;;;;;;;4944364;28;20284;-90
2023/01/02 05:04:14;;;;;;;8.33;5.57;;;;;;;;;;4941592;28;20214;-89
2023/01/02 05:06:43;;;;;;;10.93;5.33;;;;;;;;;;4958847;28;20227;-89
2023/01/02 05:09:27;;;;;;;8.30;5.13;;;;;;;;;;4942186;28;20210;-87
2023/01/02 05:11:55;;;;;;;10.87;5.07;;;;;;;;;;4941727;28;20207;-89
2023/01/02 05:14:21;;;;;;;14.57;5.47;;;;;;;;;;4932745;29;20206;-88
2023/01/02 05:16:47;;;;;;;9.77;5.00;;;;;;;;;;4960808;28;20183;-89
2023/01/02 05:19:16;;;;;;;11.23;5.30;;;;;;;;;;4948014;28;20184;-89
2023/01/02 05:24:34;;;;;;;8.63;5.27;;;;;;;;;;4959361;29;20226;-88
2023/01/02 05:27:04;;;;;;;12.17;5.50;;;;;;;;;;4957629;29;20211;-89
2023/01/02 05:29:39;;;;;;;9.90;5.20;;;;;;;;;;4957491;28;20270;-88
2023/01/02 05:32:05;;;;;;;10.00;5.60;;;;;;;;;;4957485;29;20179;-88
2023/01/02 05:34:31;;;;;;;11.10;5.30;;;;;;;;;;4957832;28;20183;-87
2023/01/02 05:36:59;;;;;;;11.30;5.43;;;;;;;;;;4957808;28;20175;-87
2023/01/02 05:39:26;;;;;;;8.25;5.13;;;;;;;;;;4957159;28;20479;-88
2023/01/02 05:41:52;;;;;;;10.15;5.47;;;;;;;;;;4956592;28;20419;-89
2023/01/02 05:44:18;;;;;;;11.83;4.67;;;;;;;;;;4957198;28;20190;-88
2023/01/02 05:46:47;;;;;;;9.17;4.57;;;;;;;;;;4941409;28;20187;-88
2023/01/02 05:49:13;;;;;;;9.33;4.70;;;;;;;;;;4949171;28;20218;-88
2023/01/02 05:51:41;;;;;;;8.70;4.80;;;;;;;;;;4957381;28;20230;-88
2023/01/02 05:54:07;;;;;;;10.40;4.70;;;;;;;;;;4960319;28;20203;-89
2023/01/02 05:56:33;;;;;;;8.90;4.67;;;;;;;;;;4941143;29;20288;-89
2023/01/02 05:59:00;;;;;;;9.40;4.67;;;;;;;;;;4954254;28;20197;-90
2023/01/02 06:01:31;;;;;;;9.37;4.10;;;;;;;;;;4960166;28;20214;-89
2023/01/02 06:03:58;;;;;;;9.97;4.70;;;;;;;;;;4942397;28;20210;-91
2023/01/02 06:06:26;;;;;;;11.57;4.60;;;;;;;;;;4948284;28;20231;-89
2023/01/02 06:08:58;;;;;;;9.17;4.43;;;;;;;;;;4960461;28;20286;-89
2023/01/02 06:11:47;;;;;;;9.02;5.05;;;;;;;;;;4957606;28;20486;-90
2023/01/02 06:14:23;;;;;;;12.37;5.20;;;;;;;;;;4926199;29;20195;-91
2023/01/02 06:16:55;;;;;;;9.50;4.50;;;;;;;;;;4941059;28;20179;-91
2023/01/02 06:19:33;;;;;;;9.17;4.77;;;;;;;;;;4940662;29;20214;-90
2023/01/02 06:22:02;;;;;;;6.97;4.33;;;;;;;;;;4941081;28;20203;-90
2023/01/02 06:24:38;;;;;;;8.57;4.40;;;;;;;;;;4940983;28;20211;-92
2023/01/02 06:27:04;;;;;;;10.03;4.80;;;;;;;;;;4940547;29;20183;-91
2023/01/02 06:29:30;;;;;;;13.20;4.37;;;;;;;;;;4940226;28;20262;-90
2023/01/02 06:32:04;;;;;;;6.90;4.63;;;;;;;;;;4940571;28;20195;-91
2023/01/02 06:34:43;;;;;;;7.13;4.20;;;;;;;;;;4940854;28;20175;-92
2023/01/02 06:37:18;;;;;;;8.50;4.17;;;;;;;;;;4925988;29;20176;-91
2023/01/02 06:39:46;;;;;;;8.83;4.53;;;;;;;;;;4940900;29;20182;-91
2023/01/02 06:42:28;;;;;;;;;;;;;;;;;;;;;
2023/01/02 06:45:00;;;;;;;9.97;4.60;;;;;;;;;;4957468;28;20189;-91
2023/01/02 06:47:29;;;;;;;10.23;4.80;;;;;;;;;;4940046;29;20190;-92
2023/01/02 06:49:58;;;;;;;8.90;4.60;;;;;;;;;;4940095;28;20258;-90
2023/01/02 06:52:27;;;;;;;13.80;6.17;;;;;;;;;;4924431;29;20206;-90
2023/01/02 06:54:56;;;;;;;7.77;4.47;;;;;;;;;;4940820;28;20234;-90
2023/01/02 06:57:35;;;;;;;;;;;;;;;;;;;;;
2023/01/02 07:00:11;;;;;;;;;;;;;;;;;;;;;
2023/01/02 07:02:45;;;;;;;2.30;1.30;;;;;;;;;;4956615;28;20193;-91
2023/01/02 07:05:29;;;;;;;2.90;1.57;;;;;;;;;;4939401;29;20227;-91
2023/01/02 07:07:55;;;;;;;1.30;1.20;;;;;;;;;;4939828;28;20250;-91
2023/01/02 07:10:39;;;;;;;;;;;;;;;;;;;;;
2023/01/02 07:13:08;;;;;;;2.27;1.00;;;;;;;;;;4956779;28;20191;-90
2023/01/02 07:18:54;;;;;;;1.20;1.00;;;;;;;;;;4953855;28;20186;-92
2023/01/02 07:21:53;;;;;;;;;;;;;;;;;;;;;
2023/01/02 07:24:28;;;;;;;2.50;1.33;;;;;;;;;;4976049;28;20179;-91
2023/01/02 07:27:02;;;;;;;1.40;1.30;;;;;;;;;;4958737;28;20210;-90
2023/01/02 07:36:05;;;;;;;1.80;1.50;;;;;;;;;;4976428;28;20252;-91
2023/01/02 07:41:48;;;;;;;1.90;1.70;;;;;;;;;;4973569;28;20186;-91
2023/01/02 07:44:23;;;;;;;1.90;1.70;;;;;;;;;;4955220;28;20195;-91
2023/01/02 07:46:59;;;;;;;1.90;1.80;;;;;;;;;;4939493;28;20179;-91
2023/01/02 07:49:31;;;;;;;1.83;1.70;;;;;;;;;;4960767;28;20245;-90
2023/01/02 07:51:59;;;;;;;2.30;2.17;;;;;;;;;;4974523;28;20214;-91
2023/01/02 07:54:25;;;;;;;3.07;2.37;;;;;;;;;;4974041;28;20174;-90
2023/01/02 07:56:55;;;;;;;2.63;2.43;;;;;;;;;;4977300;28;20253;-90
2023/01/02 07:59:24;;;;;;;2.67;2.47;;;;;;;;;;4977418;28;20177;-90
2023/01/02 08:01:57;;;;;;;3.60;3.30;;;;;;;;;;4977308;28;20182;-91
2023/01/02 08:04:47;;;;;;;3.70;3.40;;;;;;;;;;4976892;28;20260;-90
2023/01/02 08:07:22;;;;;;;3.83;3.53;;;;;;;;;;4952979;28;20203;-90
2023/01/02 08:09:55;;;;;;;4.63;4.23;;;;;;;;;;4944041;28;20210;-90
2023/01/02 08:12:31;;;;;;;5.03;4.53;;;;;;;;;;4948879;28;20221;-90
2023/01/02 08:14:57;;;;;;;5.60;5.10;;;;;;;;;;4957633;28;20183;-90
2023/01/02 08:17:43;;;;;;;6.20;5.70;;;;;;;;;;4957873;28;20234;-91
2023/01/02 08:20:20;;;;;;;6.97;6.27;;;;;;;;;;4944401;28;20182;-91
2023/01/02 08:22:52;;;;;;;7.80;6.50;;;;;;;;;;4957640;28;20206;-90
2023/01/02 08:25:18;;;;;;;7.23;6.63;;;;;;;;;;4957711;28;20174;-93
2023/01/02 08:27:57;;;;;;;;;;;;;;;;;;;;;
2023/01/02 08:30:27;;;;;;;8.27;7.47;;;;;;;;;;4974948;28;20202;-91
2023/01/02 08:33:02;;;;;;;9.53;7.73;;;;;;;;;;4958148;28;20179;-91
2023/01/02 08:35:54;;;;;;;9.43;8.53;;;;;;;;;;4959056;28;20257;-92
2023/01/02 08:38:40;;;;;;;10.07;9.07;;;;;;;;;;4961270;28;20202;-93
2023/01/02 08:41:09;;;;;;;10.23;9.13;;;;;;;;;;4962015;28;20179;-90
2023/01/02 08:43:40;;;;;;;11.10;10.00;;;;;;;;;;4961262;28;20178;-90
2023/01/02 08:46:09;;;;;;;12.27;10.97;;;;;;;;;;4961302;28;20188;-89
2023/01/02 08:48:36;;;;;;;14.00;12.50;;;;;;;;;;4961471;28;20246;-90
2023/01/02 08:51:03;;;;;;;15.03;13.43;;;;;;;;;;4961263;28;20179;-91
2023/01/02 08:53:56;;;;;;;15.63;13.77;;;;;;;;;;4961180;28;20185;-90
2023/01/02 08:56:28;;;;;;;15.57;13.93;;;;;;;;;;4953659;28;20229;-89
2023/01/02 08:58:54;;;;;;;16.53;12.60;;;;;;;;;;4960571;28;20179;-90
2023/01/02 09:01:31;;;;;;;11.87;10.13;;;;;;;;;;4961307;28;20278;-90
2023/01/02 09:06:47;;;;;;;10.07;9.07;;;;;;;;;;4975748;28;20324;-91
2023/01/02 09:09:22;;;;;;;9.17;8.20;;;;;;;;;;4960619;28;20207;-90
2023/01/02 09:11:51;;;;;;;9.43;8.53;;;;;;;;;;4945415;28;20185;-89
2023/01/02 09:14:18;;;;;;;9.57;7.73;;;;;;;;;;4956911;28;20186;-91
2023/01/02 09:16:52;;;;;;;7.53;6.57;;;;;;;;;;4941671;28;20183;-92
2023/01/02 09:19:32;;;;;;;8.67;7.17;;;;;;;;;;4942033;28;20183;-90
2023/01/02 09:31:45;;;;;;;;;;;;;;;;;;;;;
2023/01/02 09:34:20;;;;;;;6.03;4.87;;;;;;;;;;4860502;29;20187;-91
2023/01/02 09:36:52;;;;;;;5.50;4.63;;;;;;;;;;4868311;29;20200;-91
2023/01/02 09:39:35;;;;;;;7.07;4.90;;;;;;;;;;4899165;29;20185;-89
2023/01/02 09:42:12;;;;;;;5.63;4.97;;;;;;;;;;4896556;29;20191;-90
2023/01/02 09:44:45;;;;;;;6.70;5.17;;;;;;;;;;4941106;29;20266;-90
2023/01/02 09:50:21;;;;;;;6.13;5.17;;;;;;;;;;4948083;29;20222;-89
2023/01/02 09:53:09;;;;;;;;;;;;;;;;;;;;;
2023/01/02 09:58:47;;;;;;;6.50;5.87;;;;;;;;;;4957968;28;20187;-91
2023/01/02 10:01:34;;;;;;;7.60;6.40;;;;;;;;;;4935864;29;20180;-89
2023/01/02 10:07:02;;;;;;;8.20;7.13;;;;;;;;;;4953435;29;20235;-90
2023/01/02 10:13:20;;;;;;;;;;;;;;;;;;;;;
2023/01/02 10:16:01;;;;;;;;;;;;;;;;;;;;;
2023/01/02 10:18:52;;;;;;;5.63;5.00;;;;;;;;;;4963309;28;20178;-89
2023/01/02 10:21:37;;;;;;;7.63;4.67;;;;;;;;;;4922006;28;20190;-89
2023/01/02 10:24:38;;;;;;;10.40;4.57;;;;;;;;;;4953225;28;20181;-89
2023/01/02 10:27:25;;;;;;;5.23;3.83;;;;;;;;;;4880904;29;20290;-90
2023/01/02 10:29:57;;;;;;;4.77;3.67;;;;;;;;;;4900677;28;20214;-91
2023/01/02 10:32:44;;;;;;;7.60;4.07;;;;;;;;;;4966072;28;20182;-90
2023/01/02 10:35:14;;;;;;;5.97;3.90;;;;;;;;;;4964627;28;20173;-91
2023/01/02 10:37:43;;;;;;;6.50;4.03;;;;;;;;;;4972533;28;20185;-89
2023/01/02 10:40:09;;;;;;;4.57;3.37;;;;;;;;;;4978326;28;20170;-89
2023/01/02 10:42:35;;;;;;;8.53;3.87;;;;;;;;;;4978045;28;20178;-91
2023/01/02 10:45:05;;;;;;;4.50;3.53;;;;;;;;;;4978149;28;20173;-89
2023/01/02 10:47:41;;;;;;;6.10;3.50;;;;;;;;;;4978265;28;20178;-89
2023/01/02 10:50:17;;;;;;;6.83;3.10;;;;;;;;;;4963078;28;20261;-88
2023/01/02 10:52:53;;;;;;;7.67;3.00;;;;;;;;;;4967104;28;20182;-89
2023/01/02 10:55:32;;;;;;;3.13;2.50;;;;;;;;;;4955426;28;20173;-89
2023/01/02 10:58:05;;;;;;;5.77;2.70;;;;;;;;;;4949747;28;20211;-89
2023/01/02 11:00:40;;;;;;;6.07;2.80;;;;;;;;;;4963117;28;20546;-90
2023/01/02 11:03:06;;;;;;;6.17;2.70;;;;;;;;;;4952420;28;20229;-88
2023/01/02 11:05:36;;;;;;;8.70;3.03;;;;;;;;;;4949136;28;20225;-89
2023/01/02 11:08:10;;;;;;;6.53;2.97;;;;;;;;;;4942170;28;20182;-89
2023/01/02 11:10:37;;;;;;;7.33;3.00;;;;;;;;;;4939513;28;20210;-91
2023/01/02 11:13:13;;;;;;;5.17;3.10;;;;;;;;;;4944396;28;20190;-89
2023/01/02 11:15:50;;;;;;;5.30;3.63;;;;;;;;;;4958190;28;20252;-89
2023/01/02 11:18:23;;;;;;;6.10;3.50;;;;;;;;;;4964930;28;20229;-89
2023/01/02 11:20:52;;;;;;;5.70;3.70;;;;;;;;;;4947488;28;20176;-90
2023/01/02 11:23:22;;;;;;;6.53;3.40;;;;;;;;;;4949852;28;20171;-90
2023/01/02 11:25:50;;;;;;;5.47;3.20;;;;;;;;;;4946453;28;20176;-89
2023/01/02 11:28:18;;;;;;;4.53;2.90;;;;;;;;;;4948337;28;20189;-90
2023/01/02 11:30:50;;;;;;;5.50;3.00;;;;;;;;;;4949616;28;20205;-90
2023/01/02 11:33:31;;;;;;;6.73;3.00;;;;;;;;;;4949045;28;20182;-89
2023/01/02 11:36:07;;;;;;;7.97;2.90;;;;;;;;;;4948233;28;20176;-90
2023/01/02 11:38:59;;;;;;;6.63;3.57;;;;;;;;;;4949301;28;20166;-90
2023/01/02 11:44:29;;;;;;;5.77;3.00;;;;;;;;;;4965945;28;20190;-89
2023/01/02 11:46:56;;;;;;;6.00;3.10;;;;;;;;;;4952051;28;20179;-89
2023/01/02 11:49:31;;;;;;;7.43;3.00;;;;;;;;;;4937192;28;20217;-88
2023/01/02 11:52:01;;;;;;;6.00;3.00;;;;;;;;;;4939470;29;20184;-89
2023/01/02 11:54:41;;;;;;;5.37;2.73;;;;;;;;;;4939687;29;20175;-92
2023/01/02 11:57:18;;;;;;;6.90;2.50;;;;;;;;;;4943216;28;20183;-89
2023/01/02 11:59:48;;;;;;;4.77;2.33;;;;;;;;;;4958431;28;20175;-89
2023/01/02 12:02:18;;;;;;;6.77;2.67;;;;;;;;;;4948697;28;20190;-88
2023/01/02 12:04:46;;;;;;;5.17;2.70;;;;;;;;;;4946609;28;20187;-89
2023/01/02 12:07:18;;;;;;;6.90;2.70;;;;;;;;;;4949052;28;20226;-89
2023/01/02 12:09:44;;;;;;;6.00;3.77;;;;;;;;;;4948938;28;20195;-88
2023/01/02 12:12:13;;;;;;;8.53;3.53;;;;;;;;;;4953904;28;20190;-87
2023/01/02 12:14:44;;;;;;;7.43;3.83;;;;;;;;;;4954004;28;20163;-87
2023/01/02 12:17:19;;;;;;;7.73;4.00;;;;;;;;;;4953799;28;20205;-88
2023/01/02 12:20:00;;;;;;;8.13;4.23;;;;;;;;;;4961933;28;20217;-88
2023/01/02 12:22:32;;;;;;;7.00;3.97;;;;;;;;;;4949406;28;20182;-88
2023/01/02 12:25:17;;;;;;;6.40;4.13;;;;;;;;;;4968576;28;20179;-88
2023/01/02 12:27:49;;;;;;;6.50;4.07;;;;;;;;;;4952704;28;20205;-90
2023/01/02 12:30:19;;;;;;;8.73;4.47;;;;;;;;;;4952472;28;20247;-90
2023/01/02 12:33:03;;;;;;;6.30;4.30;;;;;;;;;;4952307;28;20243;-89
2023/01/02 12:35:38;;;;;;;7.50;4.60;;;;;;;;;;4952818;28;20227;-88
2023/01/02 12:38:07;;;;;;;9.00;4.80;;;;;;;;;;4952134;28;20203;-88
2023/01/02 12:40:46;;;;;;;9.60;4.90;;;;;;;;;;4952537;28;20183;-89
2023/01/02 12:43:31;;;;;;;8.97;5.13;;;;;;;;;;4948025;28;20189;-88
2023/01/02 12:46:15;;;;;;;7.67;5.40;;;;;;;;;;4953716;28;20179;-89
2023/01/02 12:48:45;;;;;;;11.87;5.63;;;;;;;;;;4952339;28;20170;-87
2023/01/02 12:51:16;;;;;;;12.70;6.63;;;;;;;;;;4952220;28;20234;-88
2023/01/02 12:53:58;;;;;;;11.07;5.80;;;;;;;;;;4951536;28;20172;-89
2023/01/02 12:56:24;;;;;;;14.20;6.50;;;;;;;;;;4951972;28;20257;-89
2023/01/02 12:59:04;;;;;;;12.60;6.03;;;;;;;;;;4951823;28;20190;-88
2023/01/02 13:01:41;;;;;;;9.83;5.80;;;;;;;;;;4951013;28;20189;-89
2023/01/02 13:04:10;;;;;;;12.83;6.23;;;;;;;;;;4949452;28;20202;-89
2023/01/02 13:06:39;;;;;;;14.07;7.20;;;;;;;;;;4966540;28;20231;-88
2023/01/02 13:09:24;;;;;;;12.20;6.27;;;;;;;;;;4950514;28;20270;-87
2023/01/02 13:11:56;;;;;;;12.00;5.73;;;;;;;;;;4968317;28;20269;-88
2023/01/02 13:14:30;;;;;;;10.10;5.23;;;;;;;;;;4950542;28;20179;-90
2023/01/02 13:17:16;;;;;;;10.17;5.40;;;;;;;;;;4952243;28;20198;-88
2023/01/02 13:19:53;;;;;;;9.90;5.07;;;;;;;;;;4923299;28;20338;-87
2023/01/02 13:22:23;;;;;;;11.23;5.73;;;;;;;;;;4955300;28;20186;-91
2023/01/02 13:24:52;;;;;;;10.53;5.67;;;;;;;;;;4941199;28;20186;-89
2023/01/02 13:27:18;;;;;;;13.17;6.43;;;;;;;;;;4941763;28;20187;-90
2023/01/02 13:29:49;;;;;;;13.63;7.23;;;;;;;;;;4941279;28;20211;-90
2023/01/02 13:32:25;;;;;;;15.40;8.13;;;;;;;;;;4941306;29;20179;-89
2023/01/02 13:34:52;;;;;;;18.30;8.00;;;;;;;;;;4941486;28;20178;-89
2023/01/02 13:37:20;;;;;;;14.67;8.60;;;;;;;;;;4950711;28;20193;-90
2023/01/02 13:39:49;;;;;;;16.63;8.53;;;;;;;;;;4949287;28;20222;-91
2023/01/02 13:45:22;;;;;;;16.87;9.27;;;;;;;;;;4965871;28;20246;-90
2023/01/02 13:47:50;;;;;;;14.20;8.93;;;;;;;;;;4950233;28;20170;-91
2023/01/02 13:50:22;;;;;;;14.77;9.23;;;;;;;;;;4949987;28;20210;-90
2023/01/02 13:53:08;;;;;;;16.00;9.90;;;;;;;;;;4950047;28;20175;-91
2023/01/02 13:55:37;;;;;;;14.60;10.63;;;;;;;;;;4953060;28;20179;-91
2023/01/02 13:58:33;;;;;;;20.43;11.30;;;;;;;;;;4950516;28;20182;-90
2023/01/02 14:01:19;;;;;;;17.03;11.27;;;;;;;;;;4932184;28;20183;-90
2023/01/02 14:03:45;;;;;;;21.73;12.17;;;;;;;;;;4950802;28;20203;-91
2023/01/02 14:06:31;;;;;;;19.17;11.97;;;;;;;;;;4951335;28;20231;-91
2023/01/02 14:09:06;;;;;;;19.77;12.43;;;;;;;;;;4951526;28;20180;-92
2023/01/02 14:11:52;;;;;;;16.37;12.23;;;;;;;;;;4948700;28;20194;-90
2023/01/02 14:14:41;;;;;;;17.20;13.20;;;;;;;;;;4949047;28;20176;-91
2023/01/02 14:17:39;;;;;;;22.67;13.33;;;;;;;;;;4926670;28;20217;-91
2023/01/02 14:20:18;;;;;;;22.20;13.70;;;;;;;;;;4947970;28;20273;-90
2023/01/02 14:22:56;;;;;;;14.83;12.03;;;;;;;;;;4961463;28;20194;-91
2023/01/02 14:25:25;;;;;;;16.57;11.73;;;;;;;;;;4942948;28;20224;-91
2023/01/02 14:27:56;;;;;;;14.33;11.73;;;;;;;;;;4947892;28;20266;-91
2023/01/02 14:30:37;;;;;;;16.87;12.07;;;;;;;;;;4951155;28;20211;-89
2023/01/02 14:33:07;;;;;;;16.47;12.67;;;;;;;;;;4949572;28;20174;-91
2023/01/02 14:35:38;;;;;;;18.10;13.43;;;;;;;;;;4950282;28;20178;-90
2023/01/02 14:38:09;;;;;;;18.27;13.47;;;;;;;;;;4950205;28;20183;-91
2023/01/02 14:40:46;;;;;;;20.97;14.27;;;;;;;;;;4950430;28;20211;-90
2023/01/02 14:46:21;;;;;;;20.10;13.60;;;;;;;;;;4962502;28;20190;-91
2023/01/02 14:48:58;;;;;;;21.20;15.33;;;;;;;;;;4955269;28;20277;-92
2023/01/02 14:51:31;;;;;;;20.13;14.83;;;;;;;;;;4949802;28;20187;-91
2023/01/02 14:53:59;;;;;;;22.63;15.90;;;;;;;;;;4939946;28;20183;-91
2023/01/02 14:56:36;;;;;;;23.50;14.93;;;;;;;;;;4939842;28;20180;-89
2023/01/02 14:59:09;;;;;;;24.93;15.37;;;;;;;;;;4924186;29;20192;-89
2023/01/02 15:01:42;;;;;;;28.17;16.40;;;;;;;;;;4939725;28;20267;-90
2023/01/02 15:04:29;;;;;;;26.37;16.13;;;;;;;;;;4970790;28;20296;-88
2023/01/02 15:07:09;;;;;;;29.30;15.53;;;;;;;;;;4978406;28;20261;-89
2023/01/02 15:09:40;;;;;;;28.47;16.13;;;;;;;;;;4978138;28;20209;-86
2023/01/02 15:15:03;;;;;;;28.43;16.40;;;;;;;;;;4995951;28;20262;-84
2023/01/02 15:17:30;;;;;;;23.87;16.37;;;;;;;;;;4962458;28;20186;-84
2023/01/02 15:19:59;;;;;;;23.90;14.63;;;;;;;;;;4978535;28;20193;-85
2023/01/02 15:22:29;;;;;;;22.03;14.83;;;;;;;;;;4978502;28;20182;-85
2023/01/02 15:24:59;;;;;;;19.20;14.67;;;;;;;;;;4978978;28;20205;-86
2023/01/02 15:27:27;;;;;;;21.90;14.53;;;;;;;;;;4978404;28;20205;-86
2023/01/02 15:30:01;;;;;;;17.33;13.20;;;;;;;;;;4978278;28;20209;-85
2023/01/02 15:32:28;;;;;;;16.20;13.30;;;;;;;;;;4978635;28;20193;-85
2023/01/02 15:35:11;;;;;;;18.07;13.20;;;;;;;;;;4978383;28;20174;-85
2023/01/02 15:37:46;;;;;;;20.37;13.30;;;;;;;;;;4978452;28;20186;-85
2023/01/02 15:40:34;;;;;;;17.37;13.20;;;;;;;;;;4977629;28;20192;-85
2023/01/02 15:45:50;;;;;;;21.07;13.10;;;;;;;;;;4995194;28;20240;-85
2023/01/02 15:48:20;;;;;;;18.17;13.90;;;;;;;;;;4977763;28;20186;-85
2023/01/02 15:50:48;;;;;;;19.33;13.60;;;;;;;;;;4961982;28;20221;-85
2023/01/02 15:53:19;;;;;;;20.27;14.10;;;;;;;;;;4977612;28;20182;-85
2023/01/02 15:55:45;;;;;;;22.97;14.70;;;;;;;;;;4977749;28;20181;-85
2023/01/02 15:58:20;;;;;;;20.10;14.20;;;;;;;;;;4977839;28;20220;-85
2023/01/02 16:00:46;;;;;;;19.83;14.70;;;;;;;;;;4978333;28;20182;-85
2023/01/02 16:03:32;;;;;;;24.07;14.57;;;;;;;;;;4977573;28;20202;-85
2023/01/02 16:06:02;;;;;;;21.03;14.47;;;;;;;;;;4977766;28;20233;-85
2023/01/02 16:08:28;;;;;;;18.97;13.93;;;;;;;;;;4977905;28;20273;-85
2023/01/02 16:11:00;;;;;;;19.33;13.90;;;;;;;;;;4978045;28;20210;-85
2023/01/02 16:16:14;;;;;;;21.03;14.37;;;;;;;;;;4995056;28;20201;-85